Capon Bridge, WV (26711)

11:02 AM EST on February 14, 2016 (GMT -0500)
Hanging Rock, WV - 2 Miles North | | Change Station
CLOSE
Current Station
Personal Weather Station
Location: Augusta, WV
Elevation: 869 ft
Nearby Weather Stations
Active Advisory: Winter Storm Warning

Elev 869 ft 39.28 °N, 78.54 °W | Updated 15 seconds ago

Partly Cloudy
Partly Cloudy
17.8 °F
Feels Like 18 °F
N
0.0
Wind Variable Wind from WSW
Gusts 1.0 mph

Today
High -- | Low -- °F
--% Chance of Precip.
Yesterday
High -- | Low -- °F
Precip. -- in
Pressure 30.52 in
Visibility 10.0 miles
Clouds Clear
Windchill 18 °F
Dew Point 4 °F
Humidity 53%
Rainfall 0.00 in
Snow Depth Not available.
7:07 AM 5:49 PM
Waxing Crescent, 43% visible
METAR KOKV 141555Z AUTO 33003KT 10SM CLR M07/M18 A3052 RMK AO2
Pressure 30.52 in
Visibility 10.0 miles
Clouds Clear
Windchill 18 °F
Dew Point 4 °F
Humidity 53%
Rainfall 0.00 in
Snow Depth Not available.
7:07 AM 5:49 PM
Waxing Crescent, 43% visible
METAR KOKV 141555Z AUTO 33003KT 10SM CLR M07/M18 A3052 RMK AO2

10-Day Weather Forecast

Almanac

Astronomy

Feb. 14, 2016 Rise Set
Actual Time
Civil Twilight
Nautical Twilight
Astronomical Twilight
Moon
Length of Visible Light
Length of Day
Tomorrow will be .
, % of the Moon is Illuminated

Today's Extremes

State Highs State Lows

Community

WunderPhotos

Upload Photos

1,892,819 photos uploaded!

WunderBlog® & News

Nearby

Air Quality

  Air Quality AQ Index Pollutant
Not available.

Snow Depth

Station Depth Elevation

Earthquake Activity

City Distance Mag. Time & Date
Minimum magnitude displayed is 2.5.

Coastal Water Temperatures

Place Temperature

Stations

Nearby Weather Stations

Station Location Temp. Windchill Dew Point Humidity Wind Precip. Elev Updated Type
                   

Watches & Warnings

Winter Storm Warning
Issued: 8:27 AM EST Feb. 14, 2016 – National Weather Service

... Winter Storm Warning remains in effect from 1 am Monday to
10 am EST Tuesday...
... Wind Chill Advisory is cancelled...

The National Weather Service in Baltimore MD/Washington has
cancelled the Wind Chill Advisory.

* Precipitation type... snow... sleet and freezing rain Sunday
night into Tuesday morning.

* Accumulation... 1 to 3 inches of snow and sleet. Up to a
quarter inch of ice from freezing rain.

* Timing... snow will develop between 1 and 3 am Monday morning.
Snow will continue through Monday before changing to sleet and
freezing rain Monday night. Precipitation will end Tuesday
afternoon.

* Winds... southeast around 5 to 10 mph.

* Temperatures... in the teens tonight... rising into the upper 20s
to lower 30s Monday into Tuesday.

* Impacts... snow and ice will cause slippery roads and travel
will be difficult.

Precautionary/preparedness actions...

A Winter Storm Warning means significant amounts of snow...
sleet... and ice are expected or occurring. Strong winds are also
possible. This will make travel very hazardous or impossible.